Time,TemperatureF,DewpointF,PressureIn,WindDirection,WindDirectionDegrees,WindSpeedMPH,WindSpeedGustMPH,Humidity,HourlyPrecipIn,Conditions,Clouds,dailyrainin,SoftwareType,DateUTC
2013-01-03 00:03:00,30.0,29.5,30.88,NNE,28,0.0,1.0,98,0.00,,,0.00,Weather View 32 v70,2013-01-03 06:03:00,
2013-01-03 00:08:00,29.8,29.3,30.88,NNE,28,0.0,1.0,98,0.00,,,0.00,Weather View 32 v70,2013-01-03 06:08:00,
2013-01-03 00:13:00,30.2,29.7,30.88,North,6,0.0,1.0,98,0.00,,,0.00,Weather View 32 v70,2013-01-03 06:13:00,
2013-01-03 00:18:00,30.7,30.2,30.89,North,6,0.0,1.0,98,0.00,,,0.00,Weather View 32 v70,2013-01-03 06:18:00,
2013-01-03 00:23:00,31.4,30.9,30.89,NNW,343,0.0,1.0,98,0.00,,,0.00,Weather View 32 v70,2013-01-03 06:23:00,
2013-01-03 00:28:00,31.3,30.8,30.89,North,6,0.0,1.0,98,0.00,,,0.00,Weather View 32 v70,2013-01-03 06:28:00,
2013-01-03 00:33:00,30.5,29.8,30.88,NNW,343,0.0,1.0,97,0.00,,,0.00,Weather View 32 v70,2013-01-03 06:33:00,
2013-01-03 00:38:00,30.0,29.3,30.88,North,6,0.0,1.0,97,0.00,,,0.00,Weather View 32 v70,2013-01-03 06:38:00,
2013-01-03 00:43:00,31.0,30.5,30.88,WNW,298,0.0,1.0,98,0.00,,,0.00,Weather View 32 v70,2013-01-03 06:43:00,
2013-01-03 00:48:00,31.3,30.8,30.88,North,6,0.0,1.0,98,0.00,,,0.00,Weather View 32 v70,2013-01-03 06:48:00,
2013-01-03 00:53:00,31.7,31.2,30.88,North,6,0.0,1.0,98,0.00,,,0.00,Weather View 32 v70,2013-01-03 06:53:00,
2013-01-03 00:58:00,31.9,31.4,30.89,East,96,0.0,1.0,98,0.00,,,0.00,Weather View 32 v70,2013-01-03 06:58:00,
2013-01-03 01:03:00,31.5,30.7,30.89,South,186,3.0,3.0,97,0.00,,,0.00,Weather View 32 v70,2013-01-03 07:03:00,
2013-01-03 01:08:00,31.0,30.2,30.89,South,186,2.0,3.0,97,0.00,,,0.00,Weather View 32 v70,2013-01-03 07:08:00,
2013-01-03 01:13:00,30.3,29.3,30.89,SE,141,1.0,3.0,96,0.00,,,0.00,Weather View 32 v70,2013-01-03 07:13:00,
2013-01-03 01:18:00,28.5,27.2,30.90,SSE,163,3.0,3.0,95,0.00,,,0.00,Weather View 32 v70,2013-01-03 07:18:00,
2013-01-03 01:23:00,28.4,27.4,30.89,SSE,163,1.0,5.0,96,0.00,,,0.00,Weather View 32 v70,2013-01-03 07:23:00,
2013-01-03 01:28:00,28.5,27.5,30.89,East,96,0.0,5.0,96,0.00,,,0.00,Weather View 32 v70,2013-01-03 07:28:00,
2013-01-03 01:33:00,28.3,27.3,30.89,North,6,0.0,5.0,96,0.00,,,0.00,Weather View 32 v70,2013-01-03 07:33:00,
2013-01-03 01:38:00,28.3,27.6,30.89,North,6,0.0,5.0,97,0.00,,,0.00,Weather View 32 v70,2013-01-03 07:38:00,
2013-01-03 01:43:00,28.3,27.6,30.89,North,6,0.0,5.0,97,0.00,,,0.00,Weather View 32 v70,2013-01-03 07:43:00,
2013-01-03 01:48:00,28.1,27.4,30.89,NNE,28,0.0,5.0,97,0.00,,,0.00,Weather View 32 v70,2013-01-03 07:48:00,
2013-01-03 01:53:00,27.9,27.2,30.89,NNE,28,0.0,5.0,97,0.00,,,0.00,Weather View 32 v70,2013-01-03 07:53:00,
2013-01-03 01:58:00,27.7,27.0,30.89,NNE,28,0.0,5.0,97,0.00,,,0.00,Weather View 32 v70,2013-01-03 07:58:00,
2013-01-03 02:03:00,27.7,27.0,30.89,NE,51,0.0,5.0,97,0.00,,,0.00,Weather View 32 v70,2013-01-03 08:03:00,
2013-01-03 02:08:00,27.8,27.1,30.90,ENE,73,0.0,5.0,97,0.00,,,0.00,Weather View 32 v70,2013-01-03 08:08:00,
2013-01-03 02:13:00,28.0,27.5,30.90,NE,51,0.0,5.0,98,0.00,,,0.00,Weather View 32 v70,2013-01-03 08:13:00,
2013-01-03 02:18:00,27.9,27.2,30.89,NNE,28,0.0,5.0,97,0.00,,,0.00,Weather View 32 v70,2013-01-03 08:18:00,
2013-01-03 02:24:00,27.8,27.3,30.90,NNE,28,0.0,2.0,98,0.00,,,0.00,Weather View 32 v70,2013-01-03 08:24:00,
2013-01-03 02:29:00,27.5,26.8,30.90,NNE,28,0.0,1.0,97,0.00,,,0.00,Weather View 32 v70,2013-01-03 08:29:00,
2013-01-03 02:34:00,27.1,26.4,30.90,NNE,28,0.0,0.0,97,0.00,,,0.00,Weather View 32 v70,2013-01-03 08:34:00,
2013-01-03 02:39:00,27.0,26.5,30.90,NNE,28,0.0,0.0,98,0.00,,,0.00,Weather View 32 v70,2013-01-03 08:39:00,
2013-01-03 02:44:00,27.4,26.9,30.90,ENE,73,1.0,1.0,98,0.00,,,0.00,Weather View 32 v70,2013-01-03 08:44:00,
2013-01-03 02:49:00,27.8,27.3,30.90,ENE,73,1.0,2.0,98,0.00,,,0.00,Weather View 32 v70,2013-01-03 08:49:00,
2013-01-03 02:54:00,28.3,28.1,30.90,NNE,28,0.0,2.0,99,0.00,,,0.00,Weather View 32 v70,2013-01-03 08:54:00,
2013-01-03 02:59:00,28.1,27.6,30.90,ENE,73,1.0,2.0,98,0.00,,,0.00,Weather View 32 v70,2013-01-03 08:59:00,
2013-01-03 03:04:00,28.7,28.5,30.90,NE,51,0.0,2.0,99,0.00,,,0.00,Weather View 32 v70,2013-01-03 09:04:00,
2013-01-03 03:09:00,29.0,28.8,30.90,North,6,0.0,2.0,99,0.00,,,0.00,Weather View 32 v70,2013-01-03 09:09:00,
2013-01-03 03:14:00,28.7,28.5,30.91,NNE,28,0.0,2.0,99,0.00,,,0.00,Weather View 32 v70,2013-01-03 09:14:00,
2013-01-03 03:19:00,28.8,28.6,30.91,North,6,0.0,2.0,99,0.00,,,0.00,Weather View 32 v70,2013-01-03 09:19:00,
2013-01-03 03:24:00,30.1,30.1,30.91,North,6,1.0,2.0,100,0.00,,,0.00,Weather View 32 v70,2013-01-03 09:24:00,
2013-01-03 03:29:00,30.2,30.0,30.91,North,6,0.0,3.0,99,0.00,,,0.00,Weather View 32 v70,2013-01-03 09:29:00,
2013-01-03 03:34:00,30.1,29.4,30.91,NNW,343,2.0,3.0,97,0.00,,,0.00,Weather View 32 v70,2013-01-03 09:34:00,
2013-01-03 03:39:00,30.3,29.0,30.91,NNW,343,3.0,3.0,95,0.00,,,0.00,Weather View 32 v70,2013-01-03 09:39:00,
2013-01-03 03:44:00,30.5,29.2,30.91,NNW,343,1.0,4.0,95,0.00,,,0.00,Weather View 32 v70,2013-01-03 09:44:00,
2013-01-03 03:49:00,30.9,29.6,30.91,North,6,3.0,4.0,95,0.00,,,0.00,Weather View 32 v70,2013-01-03 09:49:00,
2013-01-03 03:54:00,31.1,29.6,30.91,NNE,28,0.0,4.0,94,0.00,,,0.00,Weather View 32 v70,2013-01-03 09:54:00,
2013-01-03 03:59:00,31.5,29.7,30.91,North,6,2.0,4.0,93,0.00,,,0.00,Weather View 32 v70,2013-01-03 09:59:00,
2013-01-03 04:04:00,31.9,29.8,30.91,North,6,1.0,4.0,92,0.00,,,0.00,Weather View 32 v70,2013-01-03 10:04:00,
2013-01-03 04:09:00,31.9,29.8,30.92,North,6,0.0,4.0,92,0.00,,,0.00,Weather View 32 v70,2013-01-03 10:09:00,
2013-01-03 04:14:00,31.7,29.4,30.92,North,6,0.0,4.0,91,0.00,,,0.00,Weather View 32 v70,2013-01-03 10:14:00,
2013-01-03 04:19:00,31.3,29.0,30.91,NNW,343,0.0,4.0,91,0.00,,,0.00,Weather View 32 v70,2013-01-03 10:19:00,
2013-01-03 04:24:00,31.0,28.7,30.92,NNW,343,1.0,4.0,91,0.00,,,0.00,Weather View 32 v70,2013-01-03 10:24:00,
2013-01-03 04:29:00,30.5,28.2,30.92,NNW,343,1.0,4.0,91,0.00,,,0.00,Weather View 32 v70,2013-01-03 10:29:00,
2013-01-03 04:34:00,30.8,28.8,30.92,NW,321,2.0,4.0,92,0.00,,,0.00,Weather View 32 v70,2013-01-03 10:34:00,
2013-01-03 04:39:00,31.2,29.4,30.92,NW,321,3.0,4.0,93,0.00,,,0.00,Weather View 32 v70,2013-01-03 10:39:00,
2013-01-03 04:44:00,31.1,28.8,30.93,NNW,343,1.0,3.0,91,0.00,,,0.00,Weather View 32 v70,2013-01-03 10:44:00,
2013-01-03 04:49:00,30.8,28.5,30.93,North,6,0.0,3.0,91,0.00,,,0.00,Weather View 32 v70,2013-01-03 10:49:00,
2013-01-03 04:54:00,30.7,28.7,30.92,North,6,0.0,3.0,92,0.00,,,0.00,Weather View 32 v70,2013-01-03 10:54:00,
2013-01-03 04:59:00,30.7,28.7,30.92,North,6,0.0,3.0,92,0.00,,,0.00,Weather View 32 v70,2013-01-03 10:59:00,
2013-01-03 05:04:00,30.5,28.5,30.92,NNE,28,0.0,3.0,92,0.00,,,0.00,Weather View 32 v70,2013-01-03 11:04:00,
2013-01-03 05:09:00,30.2,28.2,30.93,North,6,0.0,3.0,92,0.00,,,0.00,Weather View 32 v70,2013-01-03 11:09:00,
2013-01-03 05:14:00,29.8,27.8,30.93,North,6,0.0,3.0,92,0.00,,,0.00,Weather View 32 v70,2013-01-03 11:14:00,
2013-01-03 05:19:00,29.6,27.8,30.93,North,6,0.0,3.0,93,0.00,,,0.00,Weather View 32 v70,2013-01-03 11:19:00,
2013-01-03 05:24:00,29.6,28.1,30.93,North,6,0.0,3.0,94,0.00,,,0.00,Weather View 32 v70,2013-01-03 11:24:00,
2013-01-03 05:29:00,29.7,28.2,30.93,North,6,1.0,3.0,94,0.00,,,0.00,Weather View 32 v70,2013-01-03 11:29:00,
2013-01-03 05:34:00,29.8,28.3,30.93,North,6,0.0,3.0,94,0.00,,,0.00,Weather View 32 v70,2013-01-03 11:34:00,
2013-01-03 05:39:00,29.7,28.2,30.93,North,6,1.0,3.0,94,0.00,,,0.00,Weather View 32 v70,2013-01-03 11:39:00,
2013-01-03 05:44:00,29.6,28.1,30.93,NNW,343,0.0,3.0,94,0.00,,,0.00,Weather View 32 v70,2013-01-03 11:44:00,
2013-01-03 05:49:00,29.9,28.6,30.94,North,6,3.0,3.0,95,0.00,,,0.00,Weather View 32 v70,2013-01-03 11:49:00,
2013-01-03 05:54:00,30.0,28.5,30.94,North,6,3.0,4.0,94,0.00,,,0.00,Weather View 32 v70,2013-01-03 11:54:00,
2013-01-03 05:59:00,30.3,28.8,30.94,NW,321,4.0,6.0,94,0.00,,,0.00,Weather View 32 v70,2013-01-03 11:59:00,
2013-01-03 06:04:00,30.4,28.6,30.94,North,6,4.0,6.0,93,0.00,,,0.00,Weather View 32 v70,2013-01-03 12:04:00,
2013-01-03 06:09:00,30.7,28.9,30.94,North,6,6.0,6.0,93,0.00,,,0.00,Weather View 32 v70,2013-01-03 12:09:00,
2013-01-03 06:14:00,30.8,28.8,30.94,WNW,298,5.0,8.0,92,0.00,,,0.00,Weather View 32 v70,2013-01-03 12:14:00,
2013-01-03 06:19:00,31.0,28.9,30.95,North,6,6.0,8.0,92,0.00,,,0.00,Weather View 32 v70,2013-01-03 12:19:00,
2013-01-03 06:24:00,31.2,29.1,30.94,North,6,5.0,8.0,92,0.00,,,0.00,Weather View 32 v70,2013-01-03 12:24:00,
2013-01-03 06:29:00,31.3,29.0,30.95,NNW,343,6.0,8.0,91,0.00,,,0.00,Weather View 32 v70,2013-01-03 12:29:00,
2013-01-03 06:34:00,31.5,29.2,30.95,NW,321,5.0,8.0,91,0.00,,,0.00,Weather View 32 v70,2013-01-03 12:34:00,
2013-01-03 06:39:00,31.5,29.2,30.95,North,6,5.0,8.0,91,0.00,,,0.00,Weather View 32 v70,2013-01-03 12:39:00,
2013-01-03 06:44:00,31.5,29.2,30.96,NNW,343,5.0,8.0,91,0.00,,,0.00,Weather View 32 v70,2013-01-03 12:44:00,
2013-01-03 06:49:00,31.5,29.2,30.96,NW,321,5.0,8.0,91,0.00,,,0.00,Weather View 32 v70,2013-01-03 12:49:00,
2013-01-03 06:54:00,31.4,29.1,30.97,NNW,343,3.0,8.0,91,0.00,,,0.00,Weather View 32 v70,2013-01-03 12:54:00,
2013-01-03 06:59:00,31.5,28.9,30.96,North,6,4.0,8.0,90,0.00,,,0.00,Weather View 32 v70,2013-01-03 12:59:00,
2013-01-03 07:04:00,31.4,28.8,30.96,NNW,343,5.0,8.0,90,0.00,,,0.00,Weather View 32 v70,2013-01-03 13:04:00,
2013-01-03 07:09:00,31.4,29.1,30.97,NW,321,3.0,8.0,91,0.00,,,0.00,Weather View 32 v70,2013-01-03 13:09:00,
2013-01-03 07:14:00,31.2,28.6,30.97,NW,321,3.0,8.0,90,0.00,,,0.00,Weather View 32 v70,2013-01-03 13:14:00,
2013-01-03 07:19:00,31.2,28.9,30.98,NNW,343,1.0,8.0,91,0.00,,,0.00,Weather View 32 v70,2013-01-03 13:19:00,
2013-01-03 07:24:00,31.1,28.8,30.98,NNW,343,2.0,8.0,91,0.00,,,0.00,Weather View 32 v70,2013-01-03 13:24:00,
2013-01-03 07:29:00,31.0,28.7,30.98,North,6,3.0,8.0,91,0.00,,,0.00,Weather View 32 v70,2013-01-03 13:29:00,
2013-01-03 07:34:00,30.8,28.8,30.98,North,6,3.0,8.0,92,0.00,,,0.00,Weather View 32 v70,2013-01-03 13:34:00,
2013-01-03 07:39:00,30.7,28.7,30.98,North,6,4.0,7.0,92,0.00,,,0.00,Weather View 32 v70,2013-01-03 13:39:00,
2013-01-03 07:44:00,30.8,28.8,30.98,North,6,5.0,6.0,92,0.00,,,0.00,Weather View 32 v70,2013-01-03 13:44:00,
2013-01-03 07:49:00,30.9,28.8,30.98,NNW,343,5.0,6.0,92,0.00,,,0.00,Weather View 32 v70,2013-01-03 13:49:00,
2013-01-03 07:54:00,31.1,29.0,30.99,NW,321,5.0,8.0,92,0.00,,,0.00,Weather View 32 v70,2013-01-03 13:54:00,
2013-01-03 07:59:00,31.2,29.1,30.99,NNW,343,4.0,8.0,92,0.00,,,0.00,Weather View 32 v70,2013-01-03 13:59:00,
2013-01-03 08:04:00,31.6,29.3,30.99,NNW,343,6.0,8.0,91,0.00,,,0.00,Weather View 32 v70,2013-01-03 14:04:00,
2013-01-03 08:09:00,31.9,29.6,31.00,North,6,5.0,8.0,91,0.00,,,0.00,Weather View 32 v70,2013-01-03 14:09:00,
2013-01-03 08:14:00,32.1,29.5,31.00,North,6,4.0,10.0,90,0.00,,,0.00,Weather View 32 v70,2013-01-03 14:14:00,
2013-01-03 08:19:00,32.3,29.4,31.00,North,6,6.0,10.0,89,0.00,,,0.00,Weather View 32 v70,2013-01-03 14:19:00,
2013-01-03 08:24:00,32.6,29.7,31.00,NNE,28,7.0,11.0,89,0.00,,,0.00,Weather View 32 v70,2013-01-03 14:24:00,
2013-01-03 08:29:00,32.8,29.6,31.00,NNW,343,9.0,11.0,88,0.00,,,0.00,Weather View 32 v70,2013-01-03 14:29:00,
2013-01-03 08:34:00,32.9,29.7,31.00,NNW,343,6.0,11.0,88,0.00,,,0.00,Weather View 32 v70,2013-01-03 14:34:00,
2013-01-03 08:39:00,33.1,29.9,31.00,North,6,6.0,12.0,88,0.00,,,0.00,Weather View 32 v70,2013-01-03 14:39:00,
2013-01-03 08:44:00,33.3,30.1,31.00,North,6,10.0,13.0,88,0.00,,,0.00,Weather View 32 v70,2013-01-03 14:44:00,
2013-01-03 08:49:00,33.4,29.9,31.01,North,6,13.0,13.0,87,0.00,,,0.00,Weather View 32 v70,2013-01-03 14:49:00,
2013-01-03 08:54:00,33.6,30.1,31.01,NNW,343,8.0,13.0,87,0.00,,,0.00,Weather View 32 v70,2013-01-03 14:54:00,
2013-01-03 08:59:00,33.7,30.2,31.00,NNE,28,11.0,13.0,87,0.00,,,0.00,Weather View 32 v70,2013-01-03 14:59:00,
2013-01-03 09:04:00,33.7,30.2,31.00,NNW,343,7.0,13.0,87,0.00,,,0.00,Weather View 32 v70,2013-01-03 15:04:00,
2013-01-03 09:09:00,34.1,30.6,31.00,NNE,28,9.0,13.0,87,0.00,,,0.00,Weather View 32 v70,2013-01-03 15:09:00,
2013-01-03 09:14:00,34.4,30.9,31.01,NNW,343,7.0,13.0,87,0.00,,,0.00,Weather View 32 v70,2013-01-03 15:14:00,
2013-01-03 09:19:00,34.6,30.8,31.01,North,6,5.0,13.0,86,0.00,,,0.00,Weather View 32 v70,2013-01-03 15:19:00,
2013-01-03 09:24:00,34.9,30.8,31.01,NNE,28,5.0,14.0,85,0.00,,,0.00,Weather View 32 v70,2013-01-03 15:24:00,
2013-01-03 09:29:00,35.2,31.1,31.01,North,6,5.0,14.0,85,0.00,,,0.00,Weather View 32 v70,2013-01-03 15:29:00,
2013-01-03 09:34:00,35.7,31.6,31.01,North,6,5.0,14.0,85,0.00,,,0.00,Weather View 32 v70,2013-01-03 15:34:00,
2013-01-03 09:39:00,35.7,31.0,31.02,NNW,343,12.0,14.0,83,0.00,,,0.00,Weather View 32 v70,2013-01-03 15:39:00,
2013-01-03 09:44:00,35.9,30.9,31.01,NNW,343,11.0,14.0,82,0.00,,,0.00,Weather View 32 v70,2013-01-03 15:44:00,
2013-01-03 09:49:00,36.2,30.6,31.02,NW,321,10.0,14.0,80,0.00,,,0.00,Weather View 32 v70,2013-01-03 15:49:00,
2013-01-03 09:54:00,36.5,30.6,31.02,North,6,8.0,14.0,79,0.00,,,0.00,Weather View 32 v70,2013-01-03 15:54:00,
2013-01-03 09:59:00,36.9,31.3,31.02,NNW,343,7.0,16.0,80,0.00,,,0.00,Weather View 32 v70,2013-01-03 15:59:00,
2013-01-03 10:04:00,36.9,30.7,31.02,NW,321,6.0,16.0,78,0.00,,,0.00,Weather View 32 v70,2013-01-03 16:04:00,
2013-01-03 10:09:00,37.0,30.8,31.02,NNE,28,7.0,16.0,78,0.00,,,0.00,Weather View 32 v70,2013-01-03 16:09:00,
2013-01-03 10:14:00,37.5,31.6,31.02,NNW,343,6.0,16.0,79,0.00,,,0.00,Weather View 32 v70,2013-01-03 16:14:00,
2013-01-03 10:19:00,37.8,30.9,31.01,NNE,28,5.0,16.0,76,0.00,,,0.00,Weather View 32 v70,2013-01-03 16:19:00,
2013-01-03 10:24:00,37.6,30.7,31.01,North,6,10.0,16.0,76,0.00,,,0.00,Weather View 32 v70,2013-01-03 16:24:00,
2013-01-03 10:29:00,37.9,31.0,31.01,NNW,343,10.0,16.0,76,0.00,,,0.00,Weather View 32 v70,2013-01-03 16:29:00,
2013-01-03 10:34:00,38.4,31.2,31.01,North,6,11.0,16.0,75,0.00,,,0.00,Weather View 32 v70,2013-01-03 16:34:00,
2013-01-03 10:39:00,38.7,31.8,31.02,NNE,28,11.0,16.0,76,0.00,,,0.00,Weather View 32 v70,2013-01-03 16:39:00,
2013-01-03 10:44:00,38.8,31.2,31.02,NNE,28,10.0,16.0,74,0.00,,,0.00,Weather View 32 v70,2013-01-03 16:44:00,
2013-01-03 10:49:00,39.4,31.8,31.02,North,6,6.0,16.0,74,0.00,,,0.00,Weather View 32 v70,2013-01-03 16:49:00,
2013-01-03 10:54:00,39.8,31.8,31.01,NNE,28,6.0,16.0,73,0.00,,,0.00,Weather View 32 v70,2013-01-03 16:54:00,
2013-01-03 10:59:00,39.5,30.9,31.01,NNE,28,9.0,14.0,71,0.00,,,0.00,Weather View 32 v70,2013-01-03 16:59:00,
2013-01-03 11:04:00,39.9,31.3,31.01,North,6,8.0,15.0,71,0.00,,,0.00,Weather View 32 v70,2013-01-03 17:04:00,
2013-01-03 11:09:00,40.2,31.5,31.01,NNE,28,7.0,15.0,71,0.00,,,0.00,Weather View 32 v70,2013-01-03 17:09:00,
2013-01-03 11:14:00,40.7,31.3,31.01,NE,51,11.0,16.0,69,0.00,,,0.00,Weather View 32 v70,2013-01-03 17:14:00,
2013-01-03 11:19:00,40.9,31.9,31.01,NNE,28,8.0,16.0,70,0.00,,,0.00,Weather View 32 v70,2013-01-03 17:19:00,
2013-01-03 11:24:00,41.3,31.5,31.01,NE,51,6.0,16.0,68,0.00,,,0.00,Weather View 32 v70,2013-01-03 17:24:00,
2013-01-03 11:29:00,42.0,32.2,31.00,NNE,28,6.0,16.0,68,0.00,,,0.00,Weather View 32 v70,2013-01-03 17:29:00,
2013-01-03 11:34:00,42.0,29.9,31.00,NE,51,8.0,16.0,62,0.00,,,0.00,Weather View 32 v70,2013-01-03 17:34:00,
2013-01-03 11:39:00,42.4,30.3,31.01,NNE,28,13.0,16.0,62,0.00,,,0.00,Weather View 32 v70,2013-01-03 17:39:00,
2013-01-03 11:44:00,42.6,30.1,31.00,NNE,28,10.0,16.0,61,0.00,,,0.00,Weather View 32 v70,2013-01-03 17:44:00,
2013-01-03 11:49:00,43.2,30.6,31.00,NNE,28,6.0,16.0,61,0.00,,,0.00,Weather View 32 v70,2013-01-03 17:49:00,
2013-01-03 11:54:00,43.3,30.7,31.00,NE,51,6.0,16.0,61,0.00,,,0.00,Weather View 32 v70,2013-01-03 17:54:00,
2013-01-03 11:59:00,44.0,30.6,30.99,ENE,73,10.0,16.0,59,0.00,,,0.00,Weather View 32 v70,2013-01-03 17:59:00,
2013-01-03 12:04:00,43.3,28.2,30.99,NNE,28,7.0,16.0,55,0.00,,,0.00,Weather View 32 v70,2013-01-03 18:04:00,
2013-01-03 12:09:00,43.8,30.0,30.99,NE,51,5.0,16.0,58,0.00,,,0.00,Weather View 32 v70,2013-01-03 18:09:00,
2013-01-03 12:14:00,44.2,30.3,30.98,NE,51,9.0,16.0,58,0.00,,,0.00,Weather View 32 v70,2013-01-03 18:14:00,
2013-01-03 12:19:00,44.4,30.1,30.98,NNE,28,8.0,16.0,57,0.00,,,0.00,Weather View 32 v70,2013-01-03 18:19:00,
2013-01-03 12:24:00,44.5,30.2,30.98,NE,51,6.0,16.0,57,0.00,,,0.00,Weather View 32 v70,2013-01-03 18:24:00,
2013-01-03 12:29:00,44.3,29.6,30.97,NNE,28,8.0,16.0,56,0.00,,,0.00,Weather View 32 v70,2013-01-03 18:29:00,
2013-01-03 12:34:00,44.9,30.1,30.96,North,6,10.0,16.0,56,0.00,,,0.00,Weather View 32 v70,2013-01-03 18:34:00,
2013-01-03 12:39:00,44.6,29.9,30.96,NE,51,5.0,16.0,56,0.00,,,0.00,Weather View 32 v70,2013-01-03 18:39:00,
2013-01-03 12:44:00,45.0,28.9,30.96,NE,51,8.0,16.0,53,0.00,,,0.00,Weather View 32 v70,2013-01-03 18:44:00,
2013-01-03 12:49:00,45.4,29.7,30.95,North,6,9.0,16.0,54,0.00,,,0.00,Weather View 32 v70,2013-01-03 18:49:00,
2013-01-03 12:54:00,45.3,28.7,30.94,NE,51,10.0,16.0,52,0.00,,,0.00,Weather View 32 v70,2013-01-03 18:54:00,
2013-01-03 12:59:00,45.8,29.6,30.94,NE,51,9.0,16.0,53,0.00,,,0.00,Weather View 32 v70,2013-01-03 18:59:00,
2013-01-03 13:04:00,45.9,30.2,30.94,NNE,28,8.0,16.0,54,0.00,,,0.00,Weather View 32 v70,2013-01-03 19:04:00,
2013-01-03 13:09:00,45.9,29.7,30.94,ENE,73,6.0,18.0,53,0.00,,,0.00,Weather View 32 v70,2013-01-03 19:09:00,
2013-01-03 13:14:00,46.3,29.6,30.94,North,6,9.0,18.0,52,0.00,,,0.00,Weather View 32 v70,2013-01-03 19:14:00,
2013-01-03 13:52:00,47.3,28.6,30.95,North,6,6.0,18.0,48,0.00,,,0.00,Weather View 32 v70,2013-01-03 19:52:00,
2013-01-03 13:57:00,47.0,27.3,30.96,NE,51,7.0,18.0,46,0.00,,,0.00,Weather View 32 v70,2013-01-03 19:57:00,
2013-01-03 14:02:00,47.3,27.5,30.96,NE,51,5.0,18.0,46,0.00,,,0.00,Weather View 32 v70,2013-01-03 20:02:00,
2013-01-03 14:07:00,47.1,26.8,30.96,NNE,28,8.0,14.0,45,0.00,,,0.00,Weather View 32 v70,2013-01-03 20:07:00,
2013-01-03 14:12:00,47.4,26.5,30.96,NE,51,5.0,14.0,44,0.00,,,0.00,Weather View 32 v70,2013-01-03 20:12:00,
2013-01-03 14:17:00,47.3,28.1,30.95,North,6,5.0,14.0,47,0.00,,,0.00,Weather View 32 v70,2013-01-03 20:17:00,
2013-01-03 14:22:00,47.5,27.7,30.95,NE,51,6.0,14.0,46,0.00,,,0.00,Weather View 32 v70,2013-01-03 20:22:00,
2013-01-03 14:27:00,47.4,28.7,30.95,NNE,28,9.0,14.0,48,0.00,,,0.00,Weather View 32 v70,2013-01-03 20:27:00,
2013-01-03 14:32:00,47.3,27.5,30.95,NNE,28,5.0,14.0,46,0.00,,,0.00,Weather View 32 v70,2013-01-03 20:32:00,
2013-01-03 14:37:00,47.6,28.3,30.96,North,6,6.0,14.0,47,0.00,,,0.00,Weather View 32 v70,2013-01-03 20:37:00,
2013-01-03 14:42:00,47.8,28.0,30.96,ENE,73,13.0,14.0,46,0.00,,,0.00,Weather View 32 v70,2013-01-03 20:42:00,
2013-01-03 14:47:00,47.4,27.6,30.96,NNE,28,6.0,14.0,46,0.00,,,0.00,Weather View 32 v70,2013-01-03 20:47:00,
2013-01-03 14:52:00,47.7,27.4,30.96,North,6,9.0,14.0,45,0.00,,,0.00,Weather View 32 v70,2013-01-03 20:52:00,
2013-01-03 14:57:00,47.7,27.4,30.96,North,6,5.0,14.0,45,0.00,,,0.00,Weather View 32 v70,2013-01-03 20:57:00,
2013-01-03 15:02:00,47.3,27.5,30.96,WNW,298,5.0,14.0,46,0.00,,,0.00,Weather View 32 v70,2013-01-03 21:02:00,
2013-01-03 15:07:00,48.1,27.7,30.96,NE,51,5.0,14.0,45,0.00,,,0.00,Weather View 32 v70,2013-01-03 21:07:00,
2013-01-03 15:12:00,47.9,27.0,30.95,NW,321,11.0,13.0,44,0.00,,,0.00,Weather View 32 v70,2013-01-03 21:12:00,
2013-01-03 15:17:00,47.3,26.5,30.95,NNE,28,5.0,21.0,44,0.00,,,0.00,Weather View 32 v70,2013-01-03 21:17:00,
2013-01-03 15:22:00,46.8,27.1,30.95,NNW,343,6.0,21.0,46,0.00,,,0.00,Weather View 32 v70,2013-01-03 21:22:00,
2013-01-03 15:27:00,47.6,28.3,30.96,North,6,8.0,21.0,47,0.00,,,0.00,Weather View 32 v70,2013-01-03 21:27:00,
2013-01-03 15:32:00,48.0,28.2,30.96,NW,321,5.0,21.0,46,0.00,,,0.00,Weather View 32 v70,2013-01-03 21:32:00,
2013-01-03 15:37:00,47.6,27.3,30.96,NW,321,10.0,21.0,45,0.00,,,0.00,Weather View 32 v70,2013-01-03 21:37:00,
2013-01-03 15:43:00,47.1,27.4,30.96,NNW,343,6.0,21.0,46,0.00,,,0.00,Weather View 32 v70,2013-01-03 21:43:00,
2013-01-03 15:48:00,47.2,27.4,30.96,NNW,343,8.0,21.0,46,0.00,,,0.00,Weather View 32 v70,2013-01-03 21:48:00,
2013-01-03 15:53:00,47.8,28.0,30.97,NNE,28,8.0,21.0,46,0.00,,,0.00,Weather View 32 v70,2013-01-03 21:53:00,
2013-01-03 15:58:00,47.3,27.5,30.97,North,6,5.0,21.0,46,0.00,,,0.00,Weather View 32 v70,2013-01-03 21:58:00,
2013-01-03 16:17:00,47.1,27.9,30.97,North,6,3.0,13.0,47,0.00,,,0.00,Weather View 32 v70,2013-01-03 22:17:00,
2013-01-03 16:22:00,47.0,27.8,30.97,NNW,343,5.0,13.0,47,0.00,,,0.00,Weather View 32 v70,2013-01-03 22:22:00,
2013-01-03 16:27:00,46.6,27.9,30.97,North,6,4.0,13.0,48,0.00,,,0.00,Weather View 32 v70,2013-01-03 22:27:00,
2013-01-03 16:32:00,46.6,27.9,30.97,North,6,3.0,13.0,48,0.00,,,0.00,Weather View 32 v70,2013-01-03 22:32:00,
2013-01-03 16:37:00,46.7,28.5,30.97,NW,321,5.0,13.0,49,0.00,,,0.00,Weather View 32 v70,2013-01-03 22:37:00,
2013-01-03 16:42:00,46.7,28.0,30.98,NNW,343,5.0,11.0,48,0.00,,,0.00,Weather View 32 v70,2013-01-03 22:42:00,
2013-01-03 16:47:00,46.6,27.4,30.97,NNW,343,5.0,11.0,47,0.00,,,0.00,Weather View 32 v70,2013-01-03 22:47:00,
2013-01-03 16:52:00,46.6,27.4,30.98,NNW,343,5.0,11.0,47,0.00,,,0.00,Weather View 32 v70,2013-01-03 22:52:00,
2013-01-03 16:57:00,46.5,27.8,30.97,NNW,343,5.0,10.0,48,0.00,,,0.00,Weather View 32 v70,2013-01-03 22:57:00,
2013-01-03 17:02:00,46.5,27.3,30.97,NNW,343,6.0,10.0,47,0.00,,,0.00,Weather View 32 v70,2013-01-03 23:02:00,
2013-01-03 17:07:00,46.5,27.3,30.97,NNW,343,6.0,10.0,47,0.00,,,0.00,Weather View 32 v70,2013-01-03 23:07:00,
2013-01-03 17:12:00,46.4,27.7,30.98,North,6,4.0,10.0,48,0.00,,,0.00,Weather View 32 v70,2013-01-03 23:12:00,
2013-01-03 17:17:00,46.4,27.7,30.98,North,6,5.0,10.0,48,0.00,,,0.00,Weather View 32 v70,2013-01-03 23:17:00,
2013-01-03 17:22:00,46.3,28.2,30.98,NE,51,3.0,10.0,49,0.00,,,0.00,Weather View 32 v70,2013-01-03 23:22:00,
2013-01-03 17:27:00,46.1,28.0,30.97,North,6,3.0,9.0,49,0.00,,,0.00,Weather View 32 v70,2013-01-03 23:27:00,
2013-01-03 17:32:00,45.9,28.3,30.98,North,6,3.0,9.0,50,0.00,,,0.00,Weather View 32 v70,2013-01-03 23:32:00,
2013-01-03 17:37:00,45.7,28.1,30.98,North,6,4.0,9.0,50,0.00,,,0.00,Weather View 32 v70,2013-01-03 23:37:00,
2013-01-03 17:42:00,45.7,28.6,30.98,North,6,4.0,9.0,51,0.00,,,0.00,Weather View 32 v70,2013-01-03 23:42:00,
2013-01-03 17:47:00,45.5,28.9,30.98,NE,51,3.0,9.0,52,0.00,,,0.00,Weather View 32 v70,2013-01-03 23:47:00,
2013-01-03 17:52:00,45.4,28.8,30.98,North,6,4.0,9.0,52,0.00,,,0.00,Weather View 32 v70,2013-01-03 23:52:00,
2013-01-03 17:57:00,45.2,28.6,30.97,NNE,28,3.0,9.0,52,0.00,,,0.00,Weather View 32 v70,2013-01-03 23:57:00,
2013-01-03 18:02:00,45.0,28.9,30.98,North,6,3.0,9.0,53,0.00,,,0.00,Weather View 32 v70,2013-01-04 00:02:00,
2013-01-03 18:07:00,44.9,29.2,30.98,North,6,3.0,8.0,54,0.00,,,0.00,Weather View 32 v70,2013-01-04 00:07:00,
2013-01-03 18:12:00,44.7,29.0,30.98,NNE,28,2.0,7.0,54,0.00,,,0.00,Weather View 32 v70,2013-01-04 00:12:00,
2013-01-03 18:17:00,44.6,29.4,30.99,North,6,1.0,7.0,55,0.00,,,0.00,Weather View 32 v70,2013-01-04 00:17:00,
2013-01-03 18:22:00,44.5,29.3,30.99,NE,51,1.0,6.0,55,0.00,,,0.00,Weather View 32 v70,2013-01-04 00:22:00,
2013-01-03 18:27:00,44.4,29.2,31.00,NNE,28,0.0,6.0,55,0.00,,,0.00,Weather View 32 v70,2013-01-04 00:27:00,
2013-01-03 18:32:00,44.2,29.5,31.00,NNE,28,0.0,6.0,56,0.00,,,0.00,Weather View 32 v70,2013-01-04 00:32:00,
2013-01-03 18:37:00,44.0,29.3,31.00,NNE,28,1.0,6.0,56,0.00,,,0.00,Weather View 32 v70,2013-01-04 00:37:00,
2013-01-03 18:42:00,43.8,29.5,31.00,NNE,28,1.0,5.0,57,0.00,,,0.00,Weather View 32 v70,2013-01-04 00:42:00,
2013-01-03 18:47:00,43.5,29.7,31.00,NNE,28,3.0,5.0,58,0.00,,,0.00,Weather View 32 v70,2013-01-04 00:47:00,
2013-01-03 18:52:00,43.3,29.5,31.00,NNE,28,1.0,5.0,58,0.00,,,0.00,Weather View 32 v70,2013-01-04 00:52:00,
2013-01-03 18:57:00,43.2,29.8,31.00,NNE,28,2.0,5.0,59,0.00,,,0.00,Weather View 32 v70,2013-01-04 00:57:00,
2013-01-03 19:02:00,43.0,29.6,31.00,NNE,28,2.0,4.0,59,0.00,,,0.00,Weather View 32 v70,2013-01-04 01:02:00,
2013-01-03 19:07:00,42.9,30.0,31.00,NNE,28,1.0,4.0,60,0.00,,,0.00,Weather View 32 v70,2013-01-04 01:07:00,
2013-01-03 19:12:00,42.7,29.8,31.00,NNE,28,1.0,3.0,60,0.00,,,0.00,Weather View 32 v70,2013-01-04 01:12:00,
2013-01-03 19:17:00,42.6,30.1,31.00,North,6,2.0,3.0,61,0.00,,,0.00,Weather View 32 v70,2013-01-04 01:17:00,
2013-01-03 19:22:00,42.3,29.8,31.00,North,6,3.0,3.0,61,0.00,,,0.00,Weather View 32 v70,2013-01-04 01:22:00,
2013-01-03 19:27:00,42.1,29.6,31.00,NNE,28,3.0,3.0,61,0.00,,,0.00,Weather View 32 v70,2013-01-04 01:27:00,
2013-01-03 19:32:00,42.0,29.9,31.00,North,6,2.0,3.0,62,0.00,,,0.00,Weather View 32 v70,2013-01-04 01:32:00,
2013-01-03 19:37:00,41.9,29.8,31.00,NNE,28,2.0,3.0,62,0.00,,,0.00,Weather View 32 v70,2013-01-04 01:37:00,
2013-01-03 19:42:00,41.7,29.6,30.99,NNE,28,3.0,4.0,62,0.00,,,0.00,Weather View 32 v70,2013-01-04 01:42:00,
2013-01-03 19:47:00,41.6,29.5,31.00,North,6,3.0,4.0,62,0.00,,,0.00,Weather View 32 v70,2013-01-04 01:47:00,
2013-01-03 19:52:00,41.6,29.9,30.99,NNE,28,3.0,5.0,63,0.00,,,0.00,Weather View 32 v70,2013-01-04 01:52:00,
2013-01-03 19:57:00,41.7,30.0,31.00,NNE,28,3.0,5.0,63,0.00,,,0.00,Weather View 32 v70,2013-01-04 01:57:00,
2013-01-03 20:02:00,41.8,30.1,30.99,NNE,28,3.0,5.0,63,0.00,,,0.00,Weather View 32 v70,2013-01-04 02:02:00,
2013-01-03 20:07:00,41.9,30.2,31.00,NNE,28,2.0,5.0,63,0.00,,,0.00,Weather View 32 v70,2013-01-04 02:07:00,
2013-01-03 20:12:00,41.8,29.7,31.00,North,6,2.0,5.0,62,0.00,,,0.00,Weather View 32 v70,2013-01-04 02:12:00,
2013-01-03 20:17:00,41.8,29.7,31.01,NNE,28,2.0,5.0,62,0.00,,,0.00,Weather View 32 v70,2013-01-04 02:17:00,
2013-01-03 20:22:00,41.8,29.7,31.01,North,6,0.0,5.0,62,0.00,,,0.00,Weather View 32 v70,2013-01-04 02:22:00,
2013-01-03 20:27:00,41.5,29.8,31.01,NE,51,0.0,5.0,63,0.00,,,0.00,Weather View 32 v70,2013-01-04 02:27:00,
2013-01-03 20:32:00,41.6,30.3,31.00,NE,51,2.0,5.0,64,0.00,,,0.00,Weather View 32 v70,2013-01-04 02:32:00,
2013-01-03 20:37:00,41.4,30.1,31.00,NE,51,1.0,5.0,64,0.00,,,0.00,Weather View 32 v70,2013-01-04 02:37:00,
2013-01-03 20:42:00,41.1,29.8,30.99,ENE,73,2.0,5.0,64,0.00,,,0.00,Weather View 32 v70,2013-01-04 02:42:00,
2013-01-03 20:47:00,41.1,29.8,30.99,NE,51,3.0,5.0,64,0.00,,,0.00,Weather View 32 v70,2013-01-04 02:47:00,
2013-01-03 20:52:00,41.2,29.9,30.99,NE,51,1.0,5.0,64,0.00,,,0.00,Weather View 32 v70,2013-01-04 02:52:00,
2013-01-03 20:57:00,40.8,29.9,31.00,NNE,28,0.0,4.0,65,0.00,,,0.00,Weather View 32 v70,2013-01-04 02:57:00,
2013-01-03 21:02:00,40.1,30.0,30.99,North,6,0.0,4.0,67,0.00,,,0.00,Weather View 32 v70,2013-01-04 03:02:00,
2013-01-03 21:07:00,39.7,29.6,30.99,NE,51,0.0,3.0,67,0.00,,,0.00,Weather View 32 v70,2013-01-04 03:07:00,
2013-01-03 21:12:00,40.1,30.0,31.00,NE,51,1.0,3.0,67,0.00,,,0.00,Weather View 32 v70,2013-01-04 03:12:00,
2013-01-03 21:17:00,40.2,30.1,31.00,NNE,28,0.0,3.0,67,0.00,,,0.00,Weather View 32 v70,2013-01-04 03:17:00,
2013-01-03 21:22:00,40.2,30.1,31.00,NE,51,0.0,3.0,67,0.00,,,0.00,Weather View 32 v70,2013-01-04 03:22:00,
2013-01-03 21:27:00,40.4,30.3,31.00,NNE,28,0.0,3.0,67,0.00,,,0.00,Weather View 32 v70,2013-01-04 03:27:00,
2013-01-03 21:32:00,39.7,30.4,31.00,NNW,343,2.0,3.0,69,0.00,,,0.00,Weather View 32 v70,2013-01-04 03:32:00,
2013-01-03 21:37:00,39.9,30.2,31.00,NNW,343,2.0,3.0,68,0.00,,,0.00,Weather View 32 v70,2013-01-04 03:37:00,
2013-01-03 21:42:00,40.1,30.0,31.01,NNW,343,3.0,3.0,67,0.00,,,0.00,Weather View 32 v70,2013-01-04 03:42:00,
2013-01-03 21:47:00,40.6,30.1,31.01,North,6,3.0,3.0,66,0.00,,,0.00,Weather View 32 v70,2013-01-04 03:47:00,
2013-01-03 21:52:00,41.1,30.2,31.01,NNE,28,3.0,3.0,65,0.00,,,0.00,Weather View 32 v70,2013-01-04 03:52:00,
2013-01-03 21:57:00,41.4,30.1,31.01,North,6,3.0,3.0,64,0.00,,,0.00,Weather View 32 v70,2013-01-04 03:57:00,
2013-01-03 22:02:00,41.6,29.9,31.01,North,6,3.0,3.0,63,0.00,,,0.00,Weather View 32 v70,2013-01-04 04:02:00,
2013-01-03 22:07:00,41.8,29.7,31.02,North,6,2.0,3.0,62,0.00,,,0.00,Weather View 32 v70,2013-01-04 04:07:00,
2013-01-03 22:12:00,41.8,30.1,31.01,NNE,28,2.0,3.0,63,0.00,,,0.00,Weather View 32 v70,2013-01-04 04:12:00,
2013-01-03 22:17:00,41.7,30.0,31.01,NNE,28,2.0,3.0,63,0.00,,,0.00,Weather View 32 v70,2013-01-04 04:17:00,
2013-01-03 22:22:00,41.4,30.1,31.01,NE,51,5.0,6.0,64,0.00,,,0.00,Weather View 32 v70,2013-01-04 04:22:00,
2013-01-03 22:27:00,41.1,30.2,31.00,NNE,28,5.0,6.0,65,0.00,,,0.00,Weather View 32 v70,2013-01-04 04:27:00,
2013-01-03 22:33:00,40.9,30.4,31.00,NNE,28,4.0,6.0,66,0.00,,,0.00,Weather View 32 v70,2013-01-04 04:33:00,
2013-01-03 22:38:00,40.8,30.7,31.01,NNE,28,3.0,6.0,67,0.00,,,0.00,Weather View 32 v70,2013-01-04 04:38:00,
2013-01-03 22:43:00,40.8,30.7,31.01,NNE,28,3.0,6.0,67,0.00,,,0.00,Weather View 32 v70,2013-01-04 04:43:00,
2013-01-03 22:48:00,40.7,30.6,31.01,NE,51,2.0,6.0,67,0.00,,,0.00,Weather View 32 v70,2013-01-04 04:48:00,
2013-01-03 22:53:00,40.9,30.8,31.01,NE,51,1.0,6.0,67,0.00,,,0.00,Weather View 32 v70,2013-01-04 04:53:00,
2013-01-03 22:58:00,41.0,30.9,31.01,NNE,28,1.0,6.0,67,0.00,,,0.00,Weather View 32 v70,2013-01-04 04:58:00,
2013-01-03 23:00:00,41.0,30.9,31.01,NNE,28,1.0,6.0,67,0.00,,,0.00,Weather View 32 v70,2013-01-04 05:00:00,
2013-01-03 23:01:00,41.0,30.9,31.00,NNE,28,1.0,6.0,67,0.00,,,0.00,Weather View 32 v70,2013-01-04 05:01:00,
2013-01-03 23:03:00,41.0,30.9,31.00,NNE,28,2.0,6.0,67,0.00,,,0.00,Weather View 32 v70,2013-01-04 05:03:00,
2013-01-03 23:04:00,41.0,30.9,31.00,NNE,28,0.0,6.0,67,0.00,,,0.00,Weather View 32 v70,2013-01-04 05:04:00,
2013-01-03 23:09:00,41.0,30.9,31.00,NE,51,1.0,6.0,67,0.00,,,0.00,Weather View 32 v70,2013-01-04 05:09:00,
2013-01-03 23:14:00,41.1,30.6,31.00,NNE,28,2.0,6.0,66,0.00,,,0.00,Weather View 32 v70,2013-01-04 05:14:00,
2013-01-03 23:19:00,41.1,31.0,31.01,North,6,1.0,6.0,67,0.00,,,0.00,Weather View 32 v70,2013-01-04 05:19:00,
2013-01-03 23:24:00,40.7,31.0,31.01,North,6,2.0,5.0,68,0.00,,,0.00,Weather View 32 v70,2013-01-04 05:24:00,
2013-01-03 23:29:00,40.7,31.0,31.01,NW,321,2.0,5.0,68,0.00,,,0.00,Weather View 32 v70,2013-01-04 05:29:00,
2013-01-03 23:34:00,40.8,30.7,31.01,North,6,3.0,4.0,67,0.00,,,0.00,Weather View 32 v70,2013-01-04 05:34:00,
2013-01-03 23:39:00,40.8,30.7,31.01,North,6,3.0,3.0,67,0.00,,,0.00,Weather View 32 v70,2013-01-04 05:39:00,
2013-01-03 23:44:00,40.8,30.7,31.01,NNE,28,3.0,4.0,67,0.00,,,0.00,Weather View 32 v70,2013-01-04 05:44:00,
2013-01-03 23:49:00,40.7,30.6,31.01,NNE,28,2.0,4.0,67,0.00,,,0.00,Weather View 32 v70,2013-01-04 05:49:00,
2013-01-03 23:54:00,40.7,30.6,31.01,NNE,28,3.0,4.0,67,0.00,,,0.00,Weather View 32 v70,2013-01-04 05:54:00,
2013-01-03 23:59:00,40.6,30.5,31.00,NNE,28,3.0,4.0,67,0.00,,,0.00,Weather View 32 v70,2013-01-04 05:59:00,